Newcomb, New Mexico
Current Conditions -  °F | °C
As of 2:53 PM on Monday 24 Nov 2014 (Local Time) from KFMN Reporting Station
Light Snow Light Snow  
Wind Chill: 28°   Ceiling: 7500
Heat Index: 39°   Visibility: 5mi
Dew Point: 11°   Wind: 23mph
Humidity: 32%   Direction: 320°NW
Pressure: 30.14"   Gusts: 29mph
Location:  36.29°N, 108.71°W
Report Text: KFMN 242153Z 32020G25KT 5SM -SN FEW037 BKN075 OVC100 04/M12 A3014 RMK AO2 PK WND 29035/2142 RAB44E46SNB46 SLP226 P0000 T00391117
Loading
Personal Weather Stations






























Interactive Weather Map New forecast layout! Learn more

10-Day Weather Forecast

Advertisements
Track Severe Weather on mobile